Time;durP1;ratioP1;P1;durP2;ratioP2;P2;SDS_P1;SDS_P2;PMS_P1;PMS_P2;Temp;Humidity;BMP_temperature;BMP_pressure;BME280_temperature;BME280_humidity;BME280_pressure;Samples;Min_cycle;Max_cycle;Signal;HPM_P1;HPM_P2
2021/06/13 00:00:23;;;;;;;14.93;6.15;;;17.50;67.90;;;16.93;59.49;101492.00;5049463;28;20107;-79
2021/06/13 00:03:01;;;;;;;14.75;6.25;;;17.50;68.10;;;16.88;59.75;101488.16;5049523;28;20041;-79
2021/06/13 00:05:40;;;;;;;13.85;5.32;;;17.40;68.20;;;16.88;59.73;101488.16;5049701;28;20045;-79
2021/06/13 00:08:18;;;;;;;17.30;5.75;;;17.40;68.30;;;16.87;59.98;101498.31;5049710;28;20056;-79
2021/06/13 00:11:02;;;;;;;18.70;5.60;;;17.40;68.60;;;16.84;60.00;101492.38;5049447;28;20122;-78
2021/06/13 00:13:40;;;;;;;13.75;5.55;;;17.40;68.60;;;16.84;59.99;101497.88;5049559;28;20087;-79
2021/06/13 00:16:19;;;;;;;14.48;5.93;;;17.40;68.70;;;16.86;59.68;101501.28;5049621;28;20572;-79
2021/06/13 00:19:06;;;;;;;18.08;6.13;;;17.40;68.60;;;16.86;59.71;101502.09;5048653;28;20052;-79
2021/06/13 00:21:41;;;;;;;14.30;5.35;;;17.30;68.60;;;16.76;60.45;101505.19;5049305;28;20432;-79
2021/06/13 00:24:16;;;;;;;13.90;5.32;;;17.30;69.00;;;16.72;60.39;101501.16;5049547;28;20056;-79
2021/06/13 00:26:53;;;;;;;12.75;5.18;;;17.30;69.30;;;16.68;60.59;101499.88;5049275;28;20086;-79
2021/06/13 00:29:28;;;;;;;15.65;5.38;;;17.20;69.20;;;16.66;60.60;101501.97;5049232;28;20061;-80
2021/06/13 00:32:01;;;;;;;15.93;5.78;;;17.20;69.30;;;16.61;60.82;101507.19;5049097;28;20049;-80
2021/06/13 00:34:37;;;;;;;16.27;5.75;;;17.20;69.50;;;16.58;60.96;101505.72;5047747;28;20083;-80
2021/06/13 00:37:15;;;;;;;14.68;5.82;;;17.10;69.70;;;16.56;61.38;101509.69;5047567;28;20464;-80
2021/06/13 00:39:50;;;;;;;18.65;6.18;;;17.10;70.10;;;16.52;61.58;101505.66;5048796;28;20064;-80
2021/06/13 00:42:39;;;;;;;14.52;5.75;;;17.00;70.30;;;16.47;61.72;101508.13;5047491;28;20052;-80
2021/06/13 00:45:19;;;;;;;15.73;6.88;;;17.00;70.50;;;16.42;61.77;101506.00;5047612;28;20052;-80
2021/06/13 00:47:55;;;;;;;16.33;7.13;;;17.00;70.50;;;16.38;61.92;101511.03;5047639;28;20045;-80
2021/06/13 00:50:40;;;;;;;16.55;6.43;;;16.90;70.70;;;16.33;62.14;101513.53;5048564;28;20789;-80
2021/06/13 00:53:20;;;;;;;15.27;6.20;;;16.90;71.00;;;16.31;62.23;101512.03;5049031;28;20063;-80
2021/06/13 00:56:06;;;;;;;13.40;6.00;;;16.90;71.20;;;16.30;62.18;101516.69;5047482;28;20459;-79
2021/06/13 00:58:58;;;;;;;16.05;5.90;;;16.80;71.20;;;16.27;62.34;101519.81;5048783;28;20079;-80
2021/06/13 01:01:33;;;;;;;14.55;5.80;;;16.80;71.30;;;16.25;62.40;101521.06;5048476;28;20493;-80
2021/06/13 01:04:11;;;;;;;13.90;5.95;;;16.70;71.50;;;16.20;62.60;101519.78;5048178;28;20045;-80
2021/06/13 01:06:56;;;;;;;14.90;6.10;;;16.70;71.60;;;16.20;62.45;101527.13;5027317;28;20107;-80
2021/06/13 01:09:42;;;;;;;15.55;5.60;;;16.70;71.80;;;16.13;62.82;101529.84;5028363;28;20045;-80
2021/06/13 01:12:27;;;;;;;16.63;5.88;;;16.60;71.80;;;16.08;63.18;101531.47;5028815;28;20048;-79
2021/06/13 01:15:16;;;;;;;17.45;6.05;;;16.60;72.10;;;16.05;63.10;101540.09;5027028;28;20052;-80
2021/06/13 01:18:09;;;;;;;14.02;5.97;;;16.60;72.20;;;16.00;63.48;101538.78;5027166;28;20103;-79
2021/06/13 01:20:49;;;;;;;13.57;5.60;;;16.50;72.50;;;15.98;63.41;101535.38;5028181;28;20494;-80
2021/06/13 01:24:11;;;;;;;17.88;6.32;;;16.50;72.60;;;15.95;63.29;101540.41;5027346;28;20053;-79
2021/06/13 01:27:14;;;;;;;;;;;16.40;72.50;;;15.92;63.46;101536.19;5015798;28;20064;-79
2021/06/13 01:29:54;;;;;;;15.25;5.60;;;16.40;72.60;;;15.84;63.66;101530.81;5028137;28;19931;-80
2021/06/13 01:32:35;;;;;;;11.15;5.07;;;16.40;72.90;;;15.78;63.88;101532.44;5025152;28;20095;-80
2021/06/13 01:35:19;;;;;;;17.63;5.88;;;16.30;73.00;;;15.77;64.04;101536.22;5026995;28;20060;-79
2021/06/13 01:38:01;;;;;;;15.32;6.40;;;16.30;73.30;;;15.75;63.93;101532.81;5026821;28;20531;-80
2021/06/13 01:40:43;;;;;;;16.45;5.78;;;16.30;73.40;;;15.75;64.01;101531.97;5026610;28;20152;-80
2021/06/13 01:43:25;;;;;;;12.85;5.90;;;16.20;73.40;;;15.70;63.97;101527.03;5026870;28;20058;-79
2021/06/13 01:46:09;;;;;;;11.90;5.30;;;16.20;73.40;;;15.68;64.04;101533.75;5026879;28;20065;-80
2021/06/13 01:48:46;;;;;;;14.80;5.70;;;16.20;73.50;;;15.66;64.20;101535.84;5026816;28;20053;-80
2021/06/13 01:51:26;;;;;;;13.70;5.63;;;16.10;73.40;;;15.66;64.16;101539.44;5094233;22;20055;-82
2021/06/13 01:54:07;;;;;;;11.10;5.40;;;16.10;73.50;;;15.61;64.41;101530.91;5085060;28;20040;-82
2021/06/13 01:56:47;;;;;;;16.38;5.88;;;16.10;73.60;;;15.56;64.13;101530.66;5088345;28;20155;-82
2021/06/13 01:59:30;;;;;;;16.02;5.35;;;16.00;73.60;;;15.52;64.63;101527.47;5086474;28;20054;-82
2021/06/13 02:02:16;;;;;;;12.95;5.57;;;16.00;73.70;;;15.48;64.56;101528.00;5086948;28;20051;-82
2021/06/13 02:04:54;;;;;;;14.13;5.65;;;16.00;73.90;;;15.42;64.67;101524.16;5086794;28;20067;-82
2021/06/13 02:07:37;;;;;;;13.10;5.57;;;15.90;74.00;;;15.39;64.81;101532.78;5088172;28;20036;-82
2021/06/13 02:10:20;;;;;;;15.55;5.82;;;15.90;74.20;;;15.35;64.98;101525.97;5086289;28;20078;-82
2021/06/13 02:12:56;;;;;;;12.15;5.53;;;15.90;74.10;;;15.29;64.89;101524.84;5086812;28;20055;-82
2021/06/13 02:15:36;;;;;;;13.43;5.07;;;15.80;74.30;;;15.29;65.09;101532.22;5086623;28;20047;-82
2021/06/13 02:18:14;;;;;;;11.95;5.70;;;15.80;74.50;;;15.23;65.12;101534.69;5087982;28;20523;-82
2021/06/13 02:20:53;;;;;;;13.35;5.50;;;15.70;74.50;;;15.20;65.05;101534.22;5086253;28;20074;-82
2021/06/13 02:23:34;;;;;;;13.65;5.53;;;15.70;74.60;;;15.16;65.34;101541.13;5086355;28;20071;-82
2021/06/13 02:26:11;;;;;;;;;;;15.70;74.70;;;15.13;65.29;101533.25;5086906;28;20090;-82
2021/06/13 02:28:54;;;;;;;15.65;5.72;;;15.60;74.50;;;15.07;65.44;101532.13;5086254;28;19924;-82
2021/06/13 02:31:37;;;;;;;17.35;5.78;;;15.60;74.70;;;15.08;65.56;101538.47;5086179;28;20052;-82
2021/06/13 02:34:20;;;;;;;12.95;5.55;;;15.60;74.70;;;15.01;65.41;101541.13;5086408;28;20056;-82
2021/06/13 02:37:03;;;;;;;13.52;5.60;;;15.60;74.70;;;14.99;65.63;101538.56;5086554;28;20056;-82
2021/06/13 02:39:41;;;;;;;14.57;6.03;;;15.50;74.90;;;14.96;65.31;101533.44;5087529;28;20040;-82
2021/06/13 02:42:28;;;;;;;15.10;5.82;;;15.50;74.90;;;14.94;65.97;101540.16;5087275;28;20048;-82
2021/06/13 02:45:08;;;;;;;11.77;5.03;;;15.50;75.30;;;14.87;65.80;101545.56;5091463;28;20716;-82
2021/06/13 02:47:44;;;;;;;14.75;6.05;;;15.40;75.10;;;14.85;65.88;101547.66;5091521;28;20115;-82
2021/06/13 02:50:38;;;;;;;12.43;5.47;;;15.40;75.20;;;14.85;65.84;101542.16;5089382;28;20126;-82
2021/06/13 02:53:32;;;;;;;10.85;5.63;;;15.30;75.30;;;14.81;65.87;101541.69;5091476;28;20127;-82
2021/06/13 02:56:09;;;;;;;;;;;15.30;75.50;;;14.77;66.17;101540.31;5090197;28;20086;-82
2021/06/13 02:58:50;;;;;;;9.68;4.90;;;15.30;75.30;;;14.74;65.90;101557.16;5089801;28;19947;-82
2021/06/13 03:01:27;;;;;;;;;;;15.20;75.40;;;14.74;66.00;101553.59;5089684;28;20051;-82
2021/06/13 03:04:08;;;;;;;11.48;5.28;;;15.20;75.60;;;14.72;66.01;101561.97;5089686;28;19924;-82
2021/06/13 03:06:44;;;;;;;12.05;5.68;;;15.20;75.60;;;14.69;65.94;101558.75;5089109;28;20044;-82
2021/06/13 03:09:20;;;;;;;10.93;4.97;;;15.20;75.60;;;14.63;65.95;101552.13;5089511;28;20423;-82
2021/06/13 03:11:53;;;;;;;12.07;5.28;;;15.10;75.60;;;14.64;65.90;101556.56;5089306;28;20458;-82
2021/06/13 03:14:32;;;;;;;10.70;4.90;;;15.10;75.60;;;14.63;66.17;101560.34;5089935;28;20067;-82
2021/06/13 03:17:08;;;;;;;14.30;5.85;;;15.10;75.80;;;14.58;66.23;101566.41;5089479;28;20044;-81
2021/06/13 03:19:44;;;;;;;13.88;5.47;;;15.00;75.80;;;14.52;66.32;101567.09;5088890;28;20040;-82
2021/06/13 03:22:23;;;;;;;13.48;5.38;;;15.00;75.80;;;14.49;66.47;101570.22;5089399;28;20079;-82
2021/06/13 03:25:01;;;;;;;13.02;5.13;;;15.00;75.90;;;14.46;66.42;101570.56;5076130;28;20505;-82
2021/06/13 03:27:44;;;;;;;11.02;5.28;;;15.00;75.90;;;14.45;66.39;101575.22;5068907;28;20102;-82
2021/06/13 03:30:30;;;;;;;14.20;5.63;;;14.90;76.00;;;14.42;66.69;101567.34;5068430;28;20632;-82
2021/06/13 03:33:12;;;;;;;15.45;5.75;;;14.90;76.10;;;14.41;66.70;101571.13;5070438;28;20416;-82
2021/06/13 03:35:46;;;;;;;12.18;5.38;;;14.90;76.30;;;14.38;67.05;101579.72;5070060;28;20067;-82
2021/06/13 03:38:36;;;;;;;15.20;6.20;;;14.90;76.30;;;14.37;67.01;101588.94;5068790;28;20052;-82
2021/06/13 03:41:17;;;;;;;13.27;6.20;;;14.90;76.50;;;14.38;67.04;101582.44;5067848;28;20048;-82
2021/06/13 03:46:42;;;;;;;17.50;5.63;;;14.90;76.80;;;14.35;67.17;101582.81;5069900;28;20051;-82
2021/06/13 03:49:26;;;;;;;16.60;6.10;;;14.90;76.90;;;14.35;67.48;101591.03;5069957;28;20074;-82
2021/06/13 03:52:02;;;;;;;12.60;5.97;;;14.80;76.70;;;14.39;67.15;101597.84;5069729;28;20044;-82
2021/06/13 03:54:46;;;;;;;16.05;6.22;;;14.90;77.10;;;14.39;67.55;101607.94;5069976;28;20086;-82
2021/06/13 03:57:31;;;;;;;13.18;5.82;;;14.90;77.20;;;14.39;67.81;101608.81;5081530;28;20055;-82
2021/06/13 04:00:12;;;;;;;14.52;6.20;;;14.90;77.20;;;14.35;67.88;101612.94;5089154;28;20047;-82
2021/06/13 04:02:49;;;;;;;;;;;14.80;77.30;;;14.37;67.74;101602.63;5090515;28;20052;-82
2021/06/13 04:05:31;;;;;;;16.88;6.03;;;14.90;77.50;;;14.36;67.99;101609.16;5080088;28;19932;-82
2021/06/13 04:11:17;;;;;;;13.85;6.05;;;14.90;77.70;;;14.36;68.35;101602.84;5124263;27;20471;-83
2021/06/13 04:13:51;;;;;;;13.43;5.95;;;14.90;78.00;;;14.40;68.29;101604.19;5104679;28;20051;-83
2021/06/13 04:16:31;;;;;;;16.65;6.40;;;14.90;78.00;;;14.42;68.64;101608.44;5105995;28;20051;-83
2021/06/13 04:19:11;;;;;;;13.90;6.03;;;14.90;78.10;;;14.43;68.96;101615.63;5106126;28;20097;-83
2021/06/13 04:21:51;;;;;;;15.70;6.63;;;15.00;78.20;;;14.44;68.67;101616.47;5105331;28;20140;-82
2021/06/13 04:24:31;;;;;;;14.65;6.72;;;15.00;78.40;;;14.46;69.05;101615.25;5104519;28;20044;-82
2021/06/13 04:27:21;;;;;;;15.43;7.30;;;15.00;78.60;;;14.53;68.90;101611.78;5104232;28;20051;-82
2021/06/13 04:33:08;;;;;;;12.35;6.20;;;15.10;78.90;;;14.65;69.44;101618.56;5159589;27;20447;-81
2021/06/13 04:35:44;;;;;;;13.13;5.93;;;15.20;79.10;;;14.69;69.96;101619.88;5106202;28;20488;-81
2021/06/13 04:38:23;;;;;;;14.50;6.28;;;15.20;79.20;;;14.76;70.24;101612.63;5105909;28;20048;-80
2021/06/13 04:41:02;;;;;;;15.68;6.47;;;15.30;79.50;;;14.86;68.93;101615.94;5104996;28;20036;-80
2021/06/13 04:43:41;;;;;;;15.50;6.20;;;15.40;78.60;;;14.98;69.26;101619.13;5105821;28;20052;-80
2021/06/13 04:46:26;;;;;;;14.20;6.05;;;15.40;79.00;;;15.06;69.55;101620.91;5105834;28;20089;-80
2021/06/13 04:49:17;;;;;;;13.40;6.47;;;15.50;78.90;;;15.16;69.93;101620.66;5105816;28;20097;-85
2021/06/13 04:51:55;;;;;;;;;;;15.60;79.20;;;15.22;69.86;101619.88;5105911;28;20092;-83
2021/06/13 04:55:01;;;;;;;20.52;7.05;;;15.70;79.40;;;15.35;69.63;101627.47;5104168;28;19927;-89
2021/06/13 04:58:10;;;;;;;18.85;7.13;;;15.80;78.70;;;15.45;67.23;101628.03;5104361;28;20580;-90
2021/06/13 05:00:49;;;;;;;17.25;7.00;;;15.80;77.40;;;15.57;67.21;101625.66;5102939;28;20066;-89
2021/06/13 05:06:30;;;;;;;15.05;6.60;;;16.00;77.00;;;15.78;65.83;101638.63;5105163;28;20052;-87
2021/06/13 05:09:06;;;;;;;20.48;6.40;;;16.10;76.20;;;15.83;66.28;101642.50;5105588;28;20051;-87
2021/06/13 05:11:45;;;;;;;18.35;6.45;;;16.20;76.30;;;15.92;64.59;101631.44;5103118;28;20101;-87
2021/06/13 05:14:21;;;;;;;18.02;6.63;;;16.30;74.40;;;15.98;63.54;101636.97;5105484;28;20051;-87
2021/06/13 05:17:03;;;;;;;14.95;6.05;;;16.30;73.60;;;16.06;63.36;101638.75;5105060;28;20071;-87
2021/06/13 05:19:42;;;;;;;18.05;7.25;;;16.40;73.50;;;16.12;62.83;101646.22;5104501;28;20044;-88
2021/06/13 05:22:23;;;;;;;16.83;7.00;;;16.40;72.80;;;16.16;63.16;101647.56;5105164;28;20048;-87
2021/06/13 05:24:55;;;;;;;18.77;6.17;;;16.50;73.30;;;16.17;62.31;101640.16;5103503;28;20052;-87
2021/06/13 05:27:31;;;;;;;19.35;6.25;;;16.50;72.00;;;16.18;62.07;101650.09;5086330;28;20282;-87
2021/06/13 05:30:14;;;;;;;14.50;6.47;;;16.50;72.00;;;16.20;61.91;101646.13;5083835;28;20048;-87
2021/06/13 05:32:53;;;;;;;15.63;6.18;;;16.50;71.70;;;16.26;62.27;101649.13;5083067;28;20074;-87
2021/06/13 05:35:33;;;;;;;16.05;6.10;;;16.60;72.30;;;16.30;62.44;101651.28;5084869;28;20044;-86
2021/06/13 05:38:14;;;;;;;14.05;5.90;;;16.60;72.30;;;16.34;61.38;101651.75;5084366;28;20048;-87
2021/06/13 05:44:02;;;;;;;16.80;6.25;;;16.70;69.80;;;16.37;60.54;101654.97;5142434;27;20415;-87
2021/06/13 05:46:39;;;;;;;17.23;5.65;;;16.70;70.40;;;16.40;60.52;101654.56;5106120;28;20123;-87
2021/06/13 05:49:18;;;;;;;18.73;5.25;;;16.80;70.20;;;16.45;60.29;101656.75;5102994;28;20415;-88
2021/06/13 05:52:00;;;;;;;15.10;5.82;;;16.80;69.40;;;16.58;60.57;101659.63;5085431;28;20510;-87
2021/06/13 05:54:39;;;;;;;16.45;4.93;;;17.10;69.60;;;16.78;59.94;101668.03;5085649;28;20059;-88
2021/06/13 05:57:15;;;;;;;14.07;5.28;;;18.00;66.70;;;17.02;58.67;101670.59;5085503;28;20072;-88
2021/06/13 06:00:01;;;;;;;14.90;4.95;;;19.10;62.40;;;17.29;57.41;101663.41;5083320;28;20074;-87
2021/06/13 06:02:47;;;;;;;13.20;5.13;;;20.20;58.90;;;17.60;56.63;101673.97;5085395;28;20089;-88
2021/06/13 06:11:08;;;;;;;12.95;4.82;;;22.80;49.70;;;18.51;53.29;101675.66;5084421;28;19924;-87
2021/06/13 06:16:45;;;;;;;11.63;4.95;;;24.10;45.90;;;19.04;49.97;101681.25;5084932;28;20424;-88
2021/06/13 06:19:27;;;;;;;14.13;5.13;;;24.60;43.80;;;19.28;49.46;101681.66;5084772;28;20093;-87
2021/06/13 06:22:00;;;;;;;13.70;5.13;;;24.90;42.40;;;19.47;48.18;101680.75;5085017;28;20142;-87
2021/06/13 06:24:39;;;;;;;11.57;4.63;;;25.20;40.80;;;19.64;47.94;101680.31;5084807;28;20044;-87
2021/06/13 06:27:17;;;;;;;12.65;4.35;;;25.40;40.30;;;19.71;49.16;101687.53;5084940;28;20044;-87
2021/06/13 06:29:53;;;;;;;12.05;4.80;;;25.50;40.60;;;19.77;48.10;101690.53;5083970;28;20262;-89
2021/06/13 06:32:34;;;;;;;11.65;4.63;;;25.50;38.90;;;19.78;48.00;101689.44;5100364;28;20053;-87
2021/06/13 06:35:08;;;;;;;11.35;4.40;;;25.60;38.80;;;19.72;47.19;101700.31;5084760;28;20063;-87
2021/06/13 06:40:40;;;;;;;13.00;4.53;;;23.60;43.70;;;19.54;48.87;101700.09;5083289;28;20052;-88
2021/06/13 06:43:18;;;;;;;9.75;4.18;;;22.60;46.70;;;19.42;46.87;101699.91;5082971;28;20546;-88
2021/06/13 06:51:36;;;;;;;11.02;4.60;;;21.00;50.50;;;19.04;47.79;101708.84;5082177;28;20055;-95
2021/06/13 06:54:10;;;;;;;12.85;4.75;;;20.70;50.90;;;18.97;47.85;101715.41;5076960;28;20115;-87
2021/06/13 06:56:46;;;;;;;11.50;4.82;;;20.40;51.50;;;18.91;49.48;101706.91;5070827;28;20076;-88
2021/06/13 06:59:28;;;;;;;17.30;4.82;;;20.30;52.90;;;18.83;48.32;101709.88;5070669;28;20044;-84
2021/06/13 07:02:02;;;;;;;13.95;4.35;;;20.10;52.80;;;18.76;47.74;101711.75;5070527;28;20052;-90
2021/06/13 07:07:26;;;;;;;10.07;4.07;;;19.80;51.80;;;18.68;47.20;101710.03;5025781;28;20420;-88
2021/06/13 07:10:04;;;;;;;12.57;4.55;;;19.70;52.40;;;18.66;47.62;101716.84;5069548;28;20049;-88
2021/06/13 07:12:43;;;;;;;11.32;4.50;;;19.70;52.30;;;18.66;48.68;101723.19;5070732;28;20455;-84
2021/06/13 07:15:20;;;;;;;9.82;4.30;;;19.70;53.00;;;18.63;47.94;101737.38;5068763;28;20052;-83
2021/06/13 07:18:02;;;;;;;12.43;4.40;;;19.70;52.50;;;18.63;50.46;101731.03;5086467;28;20431;-86
2021/06/13 07:20:45;;;;;;;14.20;4.78;;;19.70;55.00;;;18.63;51.08;101728.28;5089635;28;20055;-87
2021/06/13 07:23:21;;;;;;;11.27;4.28;;;19.70;55.80;;;18.59;50.39;101722.31;5090586;28;20040;-86
2021/06/13 07:26:00;;;;;;;10.07;4.40;;;19.60;54.90;;;18.61;52.13;101724.88;5088912;28;20052;-86
2021/06/13 07:28:38;;;;;;;14.07;4.38;;;19.70;57.00;;;18.59;51.75;101730.59;5090490;28;20056;-86
2021/06/13 07:31:21;;;;;;;14.40;4.85;;;19.70;56.30;;;18.60;52.19;101731.44;5089541;28;20450;-86
2021/06/13 07:33:56;;;;;;;14.43;4.35;;;19.70;57.00;;;18.61;50.28;101742.25;5090447;28;20122;-86
2021/06/13 07:39:45;;;;;;;15.32;4.43;;;19.70;55.20;;;18.61;50.09;101736.75;5087575;28;20043;-88
2021/06/13 07:42:21;;;;;;;11.20;4.55;;;19.70;54.60;;;18.61;48.21;101741.41;5089807;28;20040;-87
2021/06/13 07:47:49;;;;;;;9.40;4.22;;;19.60;53.60;;;18.59;50.11;101738.84;5088203;28;20075;-87
2021/06/13 07:50:35;;;;;;;10.68;4.30;;;19.70;55.20;;;18.61;50.36;101745.00;5093779;23;20122;-86
2021/06/13 07:53:24;;;;;;;14.40;4.22;;;19.70;55.00;;;18.58;48.84;101744.56;5067461;28;20095;-85
2021/06/13 07:55:59;;;;;;;11.27;3.70;;;19.70;53.90;;;18.56;48.39;101751.16;5067706;28;20444;-85
2021/06/13 07:58:38;;;;;;;11.43;4.25;;;19.60;53.30;;;18.62;47.91;101743.97;5051357;28;20098;-84
2021/06/13 08:01:17;;;;;;;8.52;3.55;;;19.70;53.60;;;18.62;48.58;101755.00;5050501;28;20049;-83
2021/06/13 08:03:55;;;;;;;11.82;4.65;;;19.80;53.50;;;18.63;48.34;101751.16;5069489;28;20036;-83
2021/06/13 08:09:22;;;;;;;10.25;4.07;;;19.70;52.40;;;18.61;46.04;101764.31;5048761;28;20057;-84
2021/06/13 08:14:50;;;;;;;11.85;4.32;;;19.60;53.20;;;18.60;47.83;101757.13;5030793;28;20049;-83
2021/06/13 08:17:26;;;;;;;12.18;4.55;;;19.60;52.30;;;18.62;47.32;101760.50;5049010;28;20049;-83
2021/06/13 08:20:04;;;;;;;12.65;4.35;;;19.70;52.70;;;18.62;47.35;101755.00;5055656;28;20048;-83
2021/06/13 08:25:31;;;;;;;11.80;4.30;;;19.70;52.20;;;18.61;47.68;101747.78;5065331;28;20052;-83
2021/06/13 08:28:10;;;;;;;13.23;4.00;;;19.70;53.00;;;18.65;47.81;101748.22;5068554;28;20045;-84
2021/06/13 08:33:38;;;;;;;10.95;3.80;;;19.70;51.90;;;18.64;46.94;101752.88;5049923;28;20539;-84
2021/06/13 08:39:02;;;;;;;11.25;4.20;;;19.70;51.10;;;18.59;45.44;101752.66;5065383;28;20048;-84
2021/06/13 08:41:50;;;;;;;7.95;3.78;;;19.70;50.50;;;18.63;45.72;101740.13;5067298;28;20076;-84
2021/06/13 08:44:27;;;;;;;10.70;4.40;;;19.70;50.80;;;18.66;45.13;101738.91;5066879;28;20040;-87
2021/06/13 08:50:01;;;;;;;12.32;3.65;;;19.80;50.00;;;18.69;45.62;101739.28;5066895;28;20079;-88
2021/06/13 08:52:34;;;;;;;10.02;3.78;;;19.80;50.90;;;18.69;47.14;101742.06;5065284;28;20055;-88
2021/06/13 08:55:13;;;;;;;8.73;4.03;;;19.90;51.10;;;18.72;46.03;101749.91;5068187;28;20048;-89
2021/06/13 08:57:55;;;;;;;14.10;3.90;;;19.90;50.60;;;18.76;46.53;101733.81;5063854;28;20133;-87
2021/06/13 09:03:27;;;;;;;10.30;3.80;;;19.90;52.20;;;18.82;47.25;101749.53;5049751;28;20412;-87
2021/06/13 09:08:52;;;;;;;12.40;4.32;;;20.00;49.80;;;18.66;45.43;101748.00;5068359;28;20593;-86
2021/06/13 09:14:32;;;;;;;11.35;3.90;;;19.90;49.20;;;18.71;45.87;101747.38;5068155;28;20057;-89
2021/06/13 09:17:25;;;;;;;11.05;4.03;;;19.80;50.70;;;18.74;46.43;101744.22;5068287;28;20158;-87
2021/06/13 09:20:31;;;;;;;10.82;4.15;;;19.80;50.70;;;18.74;48.74;101747.81;5049465;28;20068;-87
2021/06/13 09:26:31;;;;;;;15.35;4.68;;;19.80;49.90;;;18.75;47.70;101744.00;5046591;28;20079;-87
2021/06/13 09:29:21;;;;;;;12.52;4.30;;;19.90;52.80;;;18.66;46.88;101745.25;5067960;28;20082;-88
2021/06/13 09:35:30;;;;;;;8.48;4.10;;;20.00;52.20;;;18.70;46.80;101751.19;5062744;28;20049;-81
2021/06/13 09:38:23;;;;;;;11.13;3.90;;;20.00;51.70;;;18.76;50.65;101751.19;5048398;28;20072;-81
2021/06/13 09:41:14;;;;;;;12.13;4.80;;;20.10;54.20;;;18.81;48.40;101747.00;5047419;28;20049;-89
2021/06/13 09:47:03;;;;;;;11.63;4.22;;;20.10;51.20;;;18.87;46.72;101748.94;5049586;28;20079;-91
2021/06/13 09:50:07;;;;;;;9.10;4.00;;;20.20;50.90;;;18.91;45.61;101748.28;5031973;28;20049;-92
2021/06/13 09:52:48;;;;;;;12.73;4.20;;;20.20;50.70;;;18.95;47.84;101740.44;5030019;28;20763;-87
2021/06/13 09:55:40;;;;;;;11.65;4.22;;;20.20;52.20;;;18.95;45.57;101744.06;5047760;28;20048;-87
2021/06/13 10:04:08;;;;;;;9.23;3.65;;;20.20;53.20;;;18.98;45.44;101745.53;5067463;28;20045;-86
2021/06/13 10:06:48;;;;;;;8.77;3.53;;;20.20;49.10;;;18.98;46.47;101748.28;5051370;28;20049;-87
2021/06/13 10:09:45;;;;;;;11.15;3.92;;;20.20;49.50;;;19.06;48.93;101745.34;5047406;28;20049;-90
2021/06/13 10:12:24;;;;;;;8.13;3.88;;;20.30;52.90;;;19.07;48.19;101746.19;5048953;28;20460;-89
2021/06/13 10:15:11;;;;;;;11.63;4.00;;;20.40;51.40;;;19.16;49.65;101744.09;5044661;28;20091;-88
2021/06/13 10:17:50;;;;;;;8.23;3.72;;;20.50;53.60;;;19.23;47.55;101750.44;5046577;28;20091;-85
2021/06/13 10:23:30;;;;;;;9.00;3.92;;;20.50;49.30;;;19.20;46.27;101750.88;5047748;28;20049;-86
2021/06/13 10:26:18;;;;;;;10.18;4.10;;;20.50;50.10;;;19.20;45.53;101737.91;5047096;28;20044;-86
2021/06/13 10:29:04;;;;;;;7.55;3.47;;;20.50;49.40;;;19.17;43.16;101740.25;5048767;28;20268;-88
2021/06/13 10:31:41;;;;;;;10.77;3.45;;;20.50;47.20;;;19.16;42.34;101735.81;5050970;28;20181;-81
2021/06/13 10:34:20;;;;;;;9.82;3.08;;;20.40;46.60;;;19.18;45.57;101726.25;5051364;28;20643;-78
2021/06/13 10:37:05;;;;;;;7.28;3.13;;;20.50;48.80;;;19.34;46.51;101733.25;5051188;28;20075;-78
2021/06/13 10:39:48;;;;;;;13.55;3.78;;;20.60;51.40;;;19.41;46.83;101731.31;5050563;28;20047;-78
2021/06/13 10:45:14;;;;;;;12.13;4.00;;;20.70;48.90;;;19.41;44.84;101730.50;5051005;28;20045;-77
2021/06/13 10:58:12;;;;;;;13.60;3.30;;;20.70;50.10;;;19.51;46.42;101731.75;5163007;27;20217;-83
2021/06/13 11:10:26;;;;;;;10.50;3.78;;;21.00;47.80;;;19.54;44.10;101731.31;5125310;27;20050;-83
2021/06/13 11:13:20;;;;;;;10.18;3.83;;;21.00;47.90;;;19.56;44.93;101733.03;5126442;28;20415;-84
2021/06/13 11:19:32;;;;;;;16.25;3.80;;;21.00;46.40;;;19.60;47.07;101728.75;5125782;27;20043;-77
2021/06/13 11:22:44;;;;;;;12.63;3.72;;;21.10;50.40;;;19.57;43.24;101724.50;5125946;28;20043;-77
2021/06/13 11:25:30;;;;;;;7.85;3.67;;;21.10;45.50;;;19.56;43.47;101720.06;5126060;28;20053;-77
2021/06/13 11:28:27;;;;;;;7.38;3.13;;;21.10;45.70;;;19.65;48.22;101721.53;5125751;27;20043;-77
2021/06/13 11:31:22;;;;;;;10.80;3.95;;;21.20;50.50;;;19.66;45.04;101711.31;5125123;27;20082;-79
2021/06/13 11:34:10;;;;;;;10.50;3.20;;;21.20;47.70;;;19.63;43.84;101708.97;5125830;28;20040;-78
2021/06/13 11:36:43;;;;;;;14.35;3.88;;;21.20;46.40;;;19.70;46.16;101712.59;5125671;28;20050;-79
2021/06/13 11:40:01;;;;;;;11.65;4.05;;;21.20;48.80;;;19.72;44.89;101710.50;5125656;28;20043;-78
2021/06/13 11:42:40;;;;;;;7.82;3.38;;;21.30;48.40;;;19.78;46.01;101700.50;5136508;27;20511;-79
2021/06/13 11:45:37;;;;;;;8.30;3.28;;;21.40;48.90;;;19.76;43.05;101709.00;5125531;28;20039;-78
2021/06/13 11:48:31;;;;;;;8.90;3.78;;;21.40;45.70;;;19.76;42.80;101700.69;5125638;27;20128;-79
2021/06/13 11:51:17;;;;;;;8.52;3.53;;;21.40;45.80;;;19.75;43.05;101709.22;5124543;28;20043;-78
2021/06/13 11:54:08;;;;;;;7.85;3.25;;;21.30;45.80;;;19.72;42.47;101705.84;5125405;28;20055;-78
2021/06/13 11:56:50;;;;;;;7.20;3.05;;;21.30;44.80;;;19.76;42.95;101710.91;5122041;27;20036;-79
2021/06/13 12:02:20;;;;;;;;;;;21.40;44.60;;;19.77;42.63;101696.03;5104846;28;20048;-79
2021/06/13 12:05:09;;;;;;;7.38;3.25;;;21.40;44.60;;;19.76;41.87;101703.47;5104857;28;19927;-78
2021/06/13 12:07:44;;;;;;;10.88;3.45;;;21.40;43.10;;;19.74;41.50;101697.31;5100323;28;20109;-79
2021/06/13 12:10:32;;;;;;;7.78;3.40;;;21.30;43.80;;;19.81;45.30;101695.38;5090449;28;20497;-79
2021/06/13 12:13:18;;;;;;;11.23;3.15;;;21.30;47.80;;;19.92;44.98;101689.19;5090953;28;20135;-79
2021/06/13 12:15:56;;;;;;;7.63;3.28;;;21.40;48.50;;;19.99;46.93;101693.81;5091079;28;20048;-78
2021/06/13 12:18:39;;;;;;;10.73;3.63;;;21.50;49.50;;;20.01;44.63;101691.69;5090541;28;20097;-79
2021/06/13 12:21:29;;;;;;;11.52;3.20;;;21.60;46.80;;;20.03;43.94;101690.44;5090117;28;20681;-79
2021/06/13 12:24:49;;;;;;;12.38;3.60;;;21.60;46.70;;;20.01;41.70;101683.41;5090798;28;20063;-79
2021/06/13 12:27:28;;;;;;;12.95;3.40;;;21.60;43.90;;;19.97;42.07;101679.38;5090790;28;20047;-78
2021/06/13 12:30:07;;;;;;;13.18;3.65;;;21.60;43.80;;;20.01;42.39;101692.56;5089715;28;20044;-78
2021/06/13 12:32:44;;;;;;;8.52;3.58;;;21.60;45.10;;;20.03;42.78;101684.91;5089301;28;20511;-79
2021/06/13 12:35:23;;;;;;;10.82;3.47;;;21.60;45.90;;;20.01;42.13;101683.41;5090504;28;20144;-78
2021/06/13 12:38:08;;;;;;;12.10;3.75;;;21.60;44.10;;;20.02;43.20;101682.34;5090570;28;20093;-78
2021/06/13 12:40:54;;;;;;;10.82;3.40;;;21.60;45.40;;;20.09;44.78;101667.44;5088075;28;20413;-78
2021/06/13 12:43:49;;;;;;;9.43;3.95;;;21.60;47.70;;;20.19;45.06;101678.00;5090556;28;20044;-78
2021/06/13 12:46:44;;;;;;;11.05;3.63;;;21.80;48.20;;;20.20;45.16;101667.78;5090581;28;20040;-79
2021/06/13 12:49:22;;;;;;;9.02;3.55;;;21.80;48.10;;;20.16;44.06;101667.38;5104045;28;20059;-79
2021/06/13 12:52:11;;;;;;;8.98;3.47;;;21.80;46.20;;;20.14;44.59;101669.53;5109425;28;20803;-79
2021/06/13 12:54:57;;;;;;;9.82;3.15;;;21.80;47.00;;;20.11;43.44;101667.22;5110657;28;20054;-79
2021/06/13 12:57:36;;;;;;;12.85;4.63;;;21.70;45.70;;;20.22;47.34;101665.66;5110235;28;20047;-79
2021/06/13 13:00:20;;;;;;;7.85;3.40;;;21.80;49.90;;;20.21;45.11;101662.06;5109786;28;20488;-79
2021/06/13 13:03:15;;;;;;;10.27;4.10;;;21.80;47.30;;;20.23;46.30;101659.91;5109715;28;20776;-78